sensor_id;sensor_type;location;lat;lon;timestamp;P1;durP1;ratioP1;P2;durP2;ratioP2
27921;SDS011;15261;50.356;10.340;2023-05-08T00:01:37;8.10;;;7.35;;
27921;SDS011;15261;50.356;10.340;2023-05-08T00:04:03;8.40;;;7.75;;
27921;SDS011;15261;50.356;10.340;2023-05-08T00:06:28;8.38;;;7.78;;
27921;SDS011;15261;50.356;10.340;2023-05-08T00:08:55;8.57;;;7.88;;
27921;SDS011;15261;50.356;10.340;2023-05-08T00:11:20;8.27;;;7.57;;
27921;SDS011;15261;50.356;10.340;2023-05-08T00:13:46;8.40;;;7.70;;
27921;SDS011;15261;50.356;10.340;2023-05-08T00:16:11;7.95;;;7.25;;
27921;SDS011;15261;50.356;10.340;2023-05-08T00:18:37;8.40;;;7.70;;
27921;SDS011;15261;50.356;10.340;2023-05-08T00:21:03;8.38;;;7.57;;
27921;SDS011;15261;50.356;10.340;2023-05-08T00:23:29;8.05;;;7.45;;
27921;SDS011;15261;50.356;10.340;2023-05-08T00:25:55;8.90;;;8.20;;
27921;SDS011;15261;50.356;10.340;2023-05-08T00:28:21;8.50;;;7.80;;
27921;SDS011;15261;50.356;10.340;2023-05-08T00:30:47;8.35;;;7.65;;
27921;SDS011;15261;50.356;10.340;2023-05-08T00:33:12;8.45;;;7.80;;
27921;SDS011;15261;50.356;10.340;2023-05-08T00:35:38;8.35;;;7.63;;
27921;SDS011;15261;50.356;10.340;2023-05-08T00:38:06;8.63;;;7.75;;
27921;SDS011;15261;50.356;10.340;2023-05-08T00:40:31;8.80;;;8.10;;
27921;SDS011;15261;50.356;10.340;2023-05-08T00:42:57;8.88;;;7.82;;
27921;SDS011;15261;50.356;10.340;2023-05-08T00:45:23;8.82;;;8.13;;
27921;SDS011;15261;50.356;10.340;2023-05-08T00:47:49;9.45;;;7.88;;
27921;SDS011;15261;50.356;10.340;2023-05-08T00:50:15;8.60;;;7.90;;
27921;SDS011;15261;50.356;10.340;2023-05-08T00:52:41;8.20;;;7.60;;
27921;SDS011;15261;50.356;10.340;2023-05-08T00:55:07;9.00;;;8.15;;
27921;SDS011;15261;50.356;10.340;2023-05-08T00:57:33;8.38;;;7.68;;
27921;SDS011;15261;50.356;10.340;2023-05-08T01:00:00;8.50;;;7.80;;
27921;SDS011;15261;50.356;10.340;2023-05-08T01:46:04;8.95;;;8.15;;
27921;SDS011;15261;50.356;10.340;2023-05-08T02:53:09;8.07;;;7.47;;
27921;SDS011;15261;50.356;10.340;2023-05-08T02:56:31;8.02;;;7.32;;
27921;SDS011;15261;50.356;10.340;2023-05-08T02:59:15;7.60;;;7.00;;
27921;SDS011;15261;50.356;10.340;2023-05-08T03:01:51;7.82;;;7.15;;
27921;SDS011;15261;50.356;10.340;2023-05-08T03:04:25;9.73;;;7.60;;
27921;SDS011;15261;50.356;10.340;2023-05-08T03:06:55;7.80;;;7.10;;
27921;SDS011;15261;50.356;10.340;2023-05-08T03:09:22;7.93;;;7.22;;
27921;SDS011;15261;50.356;10.340;2023-05-08T03:11:56;8.27;;;7.57;;
27921;SDS011;15261;50.356;10.340;2023-05-08T03:14:27;8.15;;;7.45;;
27921;SDS011;15261;50.356;10.340;2023-05-08T03:16:56;8.88;;;7.97;;
27921;SDS011;15261;50.356;10.340;2023-05-08T03:19:33;8.10;;;7.07;;
27921;SDS011;15261;50.356;10.340;2023-05-08T03:22:02;8.70;;;7.80;;
27921;SDS011;15261;50.356;10.340;2023-05-08T03:24:30;8.10;;;7.40;;
27921;SDS011;15261;50.356;10.340;2023-05-08T03:27:00;8.43;;;7.63;;
27921;SDS011;15261;50.356;10.340;2023-05-08T03:29:27;8.60;;;7.80;;
27921;SDS011;15261;50.356;10.340;2023-05-08T03:31:55;7.80;;;7.15;;
27921;SDS011;15261;50.356;10.340;2023-05-08T03:34:22;7.93;;;7.18;;
27921;SDS011;15261;50.356;10.340;2023-05-08T03:37:00;7.55;;;6.95;;
27921;SDS011;15261;50.356;10.340;2023-05-08T03:39:26;8.18;;;7.38;;
27921;SDS011;15261;50.356;10.340;2023-05-08T03:41:52;7.90;;;7.30;;
27921;SDS011;15261;50.356;10.340;2023-05-08T03:44:19;8.18;;;7.40;;
27921;SDS011;15261;50.356;10.340;2023-05-08T03:46:45;7.47;;;6.88;;
27921;SDS011;15261;50.356;10.340;2023-05-08T03:49:15;8.38;;;7.65;;
27921;SDS011;15261;50.356;10.340;2023-05-08T03:51:42;7.60;;;6.95;;
27921;SDS011;15261;50.356;10.340;2023-05-08T03:54:09;7.95;;;6.85;;
27921;SDS011;15261;50.356;10.340;2023-05-08T03:56:34;8.43;;;7.63;;
27921;SDS011;15261;50.356;10.340;2023-05-08T03:59:08;8.60;;;7.90;;
27921;SDS011;15261;50.356;10.340;2023-05-08T04:01:57;10.32;;;8.00;;
27921;SDS011;15261;50.356;10.340;2023-05-08T04:04:38;8.63;;;7.82;;
27921;SDS011;15261;50.356;10.340;2023-05-08T04:07:13;8.23;;;7.60;;
27921;SDS011;15261;50.356;10.340;2023-05-08T04:12:38;7.82;;;7.13;;
27921;SDS011;15261;50.356;10.340;2023-05-08T04:15:06;8.82;;;8.02;;
27921;SDS011;15261;50.356;10.340;2023-05-08T04:17:41;7.57;;;6.75;;
27921;SDS011;15261;50.356;10.340;2023-05-08T04:20:20;7.93;;;7.22;;
27921;SDS011;15261;50.356;10.340;2023-05-08T04:22:49;7.80;;;7.00;;
27921;SDS011;15261;50.356;10.340;2023-05-08T04:25:16;7.78;;;7.07;;
27921;SDS011;15261;50.356;10.340;2023-05-08T04:27:43;8.20;;;7.57;;
27921;SDS011;15261;50.356;10.340;2023-05-08T04:30:10;8.35;;;6.88;;
27921;SDS011;15261;50.356;10.340;2023-05-08T04:32:36;7.40;;;6.80;;
27921;SDS011;15261;50.356;10.340;2023-05-08T04:35:05;7.53;;;6.72;;
27921;SDS011;15261;50.356;10.340;2023-05-08T04:37:32;9.50;;;6.60;;
27921;SDS011;15261;50.356;10.340;2023-05-08T04:39:57;7.53;;;6.65;;
27921;SDS011;15261;50.356;10.340;2023-05-08T04:42:24;7.43;;;6.78;;
27921;SDS011;15261;50.356;10.340;2023-05-08T04:44:53;7.60;;;6.90;;
27921;SDS011;15261;50.356;10.340;2023-05-08T04:47:19;7.55;;;6.63;;
27921;SDS011;15261;50.356;10.340;2023-05-08T04:49:45;7.28;;;6.28;;
27921;SDS011;15261;50.356;10.340;2023-05-08T04:52:11;8.05;;;6.65;;
27921;SDS011;15261;50.356;10.340;2023-05-08T04:54:36;6.30;;;5.80;;
27921;SDS011;15261;50.356;10.340;2023-05-08T04:57:05;8.45;;;6.30;;
27921;SDS011;15261;50.356;10.340;2023-05-08T04:59:32;7.28;;;6.57;;
27921;SDS011;15261;50.356;10.340;2023-05-08T05:02:01;7.50;;;6.88;;
27921;SDS011;15261;50.356;10.340;2023-05-08T05:04:32;9.60;;;7.25;;
27921;SDS011;15261;50.356;10.340;2023-05-08T05:06:59;6.72;;;6.05;;
27921;SDS011;15261;50.356;10.340;2023-05-08T05:09:25;6.80;;;6.10;;
27921;SDS011;15261;50.356;10.340;2023-05-08T05:11:51;7.20;;;6.47;;
27921;SDS011;15261;50.356;10.340;2023-05-08T05:14:16;6.75;;;6.25;;
27921;SDS011;15261;50.356;10.340;2023-05-08T05:16:42;6.90;;;6.30;;
27921;SDS011;15261;50.356;10.340;2023-05-08T05:19:08;7.53;;;6.15;;
27921;SDS011;15261;50.356;10.340;2023-05-08T05:21:33;8.75;;;6.30;;
27921;SDS011;15261;50.356;10.340;2023-05-08T05:24:01;7.65;;;6.10;;
27921;SDS011;15261;50.356;10.340;2023-05-08T05:26:27;7.25;;;6.50;;
27921;SDS011;15261;50.356;10.340;2023-05-08T05:28:53;6.38;;;5.88;;
27921;SDS011;15261;50.356;10.340;2023-05-08T05:31:19;7.05;;;6.15;;
27921;SDS011;15261;50.356;10.340;2023-05-08T05:33:44;7.43;;;6.68;;
27921;SDS011;15261;50.356;10.340;2023-05-08T05:36:10;7.20;;;6.60;;
27921;SDS011;15261;50.356;10.340;2023-05-08T05:38:36;8.15;;;6.47;;
27921;SDS011;15261;50.356;10.340;2023-05-08T05:41:02;14.48;;;6.60;;
27921;SDS011;15261;50.356;10.340;2023-05-08T05:43:27;11.65;;;6.07;;
27921;SDS011;15261;50.356;10.340;2023-05-08T05:45:53;8.93;;;6.10;;
27921;SDS011;15261;50.356;10.340;2023-05-08T05:48:21;15.80;;;6.05;;
27921;SDS011;15261;50.356;10.340;2023-05-08T05:50:47;6.47;;;5.90;;
27921;SDS011;15261;50.356;10.340;2023-05-08T05:53:12;5.85;;;5.35;;
27921;SDS011;15261;50.356;10.340;2023-05-08T05:59:01;6.57;;;5.95;;
27921;SDS011;15261;50.356;10.340;2023-05-08T06:01:26;6.68;;;6.18;;
27921;SDS011;15261;50.356;10.340;2023-05-08T06:03:53;6.57;;;5.97;;
27921;SDS011;15261;50.356;10.340;2023-05-08T06:06:19;6.93;;;5.72;;
27921;SDS011;15261;50.356;10.340;2023-05-08T06:08:44;7.03;;;6.20;;
27921;SDS011;15261;50.356;10.340;2023-05-08T06:11:10;6.68;;;5.80;;
27921;SDS011;15261;50.356;10.340;2023-05-08T06:13:38;6.97;;;6.30;;
27921;SDS011;15261;50.356;10.340;2023-05-08T06:16:04;6.90;;;6.30;;
27921;SDS011;15261;50.356;10.340;2023-05-08T06:18:31;7.63;;;5.68;;
27921;SDS011;15261;50.356;10.340;2023-05-08T06:20:57;6.00;;;5.50;;
27921;SDS011;15261;50.356;10.340;2023-05-08T06:23:23;6.35;;;5.75;;
27921;SDS011;15261;50.356;10.340;2023-05-08T06:25:50;7.25;;;5.95;;
27921;SDS011;15261;50.356;10.340;2023-05-08T06:28:16;6.05;;;5.57;;
27921;SDS011;15261;50.356;10.340;2023-05-08T06:30:42;6.30;;;5.47;;
27921;SDS011;15261;50.356;10.340;2023-05-08T06:33:08;5.93;;;5.47;;
27921;SDS011;15261;50.356;10.340;2023-05-08T06:35:35;5.95;;;5.35;;
27921;SDS011;15261;50.356;10.340;2023-05-08T06:38:01;5.70;;;5.18;;
27921;SDS011;15261;50.356;10.340;2023-05-08T06:40:27;5.70;;;5.18;;
27921;SDS011;15261;50.356;10.340;2023-05-08T06:42:52;5.47;;;5.00;;
27921;SDS011;15261;50.356;10.340;2023-05-08T06:45:18;6.30;;;5.50;;
27921;SDS011;15261;50.356;10.340;2023-05-08T06:47:44;7.47;;;5.07;;
27921;SDS011;15261;50.356;10.340;2023-05-08T06:50:09;7.47;;;5.20;;
27921;SDS011;15261;50.356;10.340;2023-05-08T06:52:35;6.40;;;5.18;;
27921;SDS011;15261;50.356;10.340;2023-05-08T06:55:01;9.50;;;5.55;;
27921;SDS011;15261;50.356;10.340;2023-05-08T06:57:27;10.27;;;5.22;;
27921;SDS011;15261;50.356;10.340;2023-05-08T06:59:54;8.57;;;5.43;;
27921;SDS011;15261;50.356;10.340;2023-05-08T07:02:20;7.50;;;5.20;;
27921;SDS011;15261;50.356;10.340;2023-05-08T07:04:46;5.70;;;5.20;;
27921;SDS011;15261;50.356;10.340;2023-05-08T07:07:11;5.75;;;5.13;;
27921;SDS011;15261;50.356;10.340;2023-05-08T07:09:38;5.70;;;5.22;;
27921;SDS011;15261;50.356;10.340;2023-05-08T07:12:04;5.22;;;4.82;;
27921;SDS011;15261;50.356;10.340;2023-05-08T07:14:29;5.80;;;5.28;;
27921;SDS011;15261;50.356;10.340;2023-05-08T07:16:55;5.80;;;5.40;;
27921;SDS011;15261;50.356;10.340;2023-05-08T07:19:22;5.18;;;4.78;;
27921;SDS011;15261;50.356;10.340;2023-05-08T07:21:48;6.10;;;5.50;;
27921;SDS011;15261;50.356;10.340;2023-05-08T07:24:14;7.63;;;5.47;;
27921;SDS011;15261;50.356;10.340;2023-05-08T07:26:40;5.93;;;5.43;;
27921;SDS011;15261;50.356;10.340;2023-05-08T07:29:06;7.68;;;4.80;;
27921;SDS011;15261;50.356;10.340;2023-05-08T07:31:32;5.65;;;5.25;;
27921;SDS011;15261;50.356;10.340;2023-05-08T07:33:57;6.25;;;5.70;;
27921;SDS011;15261;50.356;10.340;2023-05-08T07:36:23;5.88;;;4.97;;
27921;SDS011;15261;50.356;10.340;2023-05-08T07:38:49;5.68;;;5.18;;
27921;SDS011;15261;50.356;10.340;2023-05-08T07:41:14;5.97;;;5.18;;
27921;SDS011;15261;50.356;10.340;2023-05-08T07:43:40;5.43;;;5.03;;
27921;SDS011;15261;50.356;10.340;2023-05-08T07:46:07;5.95;;;5.45;;
27921;SDS011;15261;50.356;10.340;2023-05-08T07:48:39;5.60;;;5.20;;
27921;SDS011;15261;50.356;10.340;2023-05-08T07:51:05;5.65;;;5.25;;
27921;SDS011;15261;50.356;10.340;2023-05-08T07:53:30;9.65;;;5.40;;
27921;SDS011;15261;50.356;10.340;2023-05-08T07:55:56;5.72;;;5.32;;
27921;SDS011;15261;50.356;10.340;2023-05-08T07:58:22;6.40;;;5.80;;
27921;SDS011;15261;50.356;10.340;2023-05-08T08:00:47;5.63;;;5.13;;
27921;SDS011;15261;50.356;10.340;2023-05-08T08:03:13;5.55;;;5.07;;
27921;SDS011;15261;50.356;10.340;2023-05-08T08:05:38;6.13;;;5.55;;
27921;SDS011;15261;50.356;10.340;2023-05-08T08:08:04;5.68;;;5.22;;
27921;SDS011;15261;50.356;10.340;2023-05-08T08:10:29;7.43;;;5.85;;
27921;SDS011;15261;50.356;10.340;2023-05-08T08:12:55;5.85;;;5.35;;
27921;SDS011;15261;50.356;10.340;2023-05-08T08:15:21;6.22;;;5.63;;
27921;SDS011;15261;50.356;10.340;2023-05-08T08:17:46;6.45;;;5.18;;
27921;SDS011;15261;50.356;10.340;2023-05-08T08:20:12;7.63;;;5.88;;
27921;SDS011;15261;50.356;10.340;2023-05-08T08:22:38;7.18;;;5.85;;
27921;SDS011;15261;50.356;10.340;2023-05-08T08:25:04;6.53;;;5.53;;
27921;SDS011;15261;50.356;10.340;2023-05-08T08:27:30;6.10;;;5.20;;
27921;SDS011;15261;50.356;10.340;2023-05-08T08:29:56;6.07;;;5.65;;
27921;SDS011;15261;50.356;10.340;2023-05-08T08:32:21;6.50;;;5.15;;
27921;SDS011;15261;50.356;10.340;2023-05-08T08:34:47;6.05;;;5.45;;
27921;SDS011;15261;50.356;10.340;2023-05-08T08:37:14;5.78;;;5.20;;
27921;SDS011;15261;50.356;10.340;2023-05-08T08:39:39;5.50;;;5.10;;
27921;SDS011;15261;50.356;10.340;2023-05-08T08:42:05;6.10;;;5.60;;
27921;SDS011;15261;50.356;10.340;2023-05-08T08:44:31;5.97;;;5.47;;
27921;SDS011;15261;50.356;10.340;2023-05-08T08:46:57;6.70;;;5.70;;
27921;SDS011;15261;50.356;10.340;2023-05-08T08:49:27;5.78;;;5.18;;
27921;SDS011;15261;50.356;10.340;2023-05-08T08:52:01;6.40;;;5.90;;
27921;SDS011;15261;50.356;10.340;2023-05-08T08:54:28;11.05;;;6.47;;
27921;SDS011;15261;50.356;10.340;2023-05-08T08:56:59;6.97;;;5.90;;
27921;SDS011;15261;50.356;10.340;2023-05-08T08:59:29;7.80;;;5.35;;
27921;SDS011;15261;50.356;10.340;2023-05-08T09:01:57;7.38;;;5.85;;
27921;SDS011;15261;50.356;10.340;2023-05-08T09:04:30;6.68;;;5.57;;
27921;SDS011;15261;50.356;10.340;2023-05-08T09:06:56;6.50;;;5.93;;
27921;SDS011;15261;50.356;10.340;2023-05-08T09:09:22;5.90;;;5.47;;
27921;SDS011;15261;50.356;10.340;2023-05-08T09:11:49;5.70;;;5.30;;
27921;SDS011;15261;50.356;10.340;2023-05-08T09:14:16;6.95;;;5.40;;
27921;SDS011;15261;50.356;10.340;2023-05-08T09:16:42;8.85;;;5.78;;
27921;SDS011;15261;50.356;10.340;2023-05-08T09:19:07;5.82;;;5.32;;
27921;SDS011;15261;50.356;10.340;2023-05-08T09:21:33;6.30;;;5.65;;
27921;SDS011;15261;50.356;10.340;2023-05-08T09:24:03;8.80;;;5.75;;
27921;SDS011;15261;50.356;10.340;2023-05-08T09:26:30;7.00;;;5.88;;
27921;SDS011;15261;50.356;10.340;2023-05-08T09:29:21;14.48;;;5.78;;
27921;SDS011;15261;50.356;10.340;2023-05-08T09:31:47;8.60;;;5.65;;
27921;SDS011;15261;50.356;10.340;2023-05-08T09:34:24;6.93;;;6.22;;
27921;SDS011;15261;50.356;10.340;2023-05-08T09:36:54;7.07;;;6.50;;
27921;SDS011;15261;50.356;10.340;2023-05-08T09:39:29;11.30;;;6.15;;
27921;SDS011;15261;50.356;10.340;2023-05-08T09:41:59;16.50;;;6.30;;
27921;SDS011;15261;50.356;10.340;2023-05-08T09:44:26;11.05;;;6.00;;
27921;SDS011;15261;50.356;10.340;2023-05-08T09:47:08;7.03;;;6.43;;
27921;SDS011;15261;50.356;10.340;2023-05-08T09:49:38;14.05;;;6.88;;
27921;SDS011;15261;50.356;10.340;2023-05-08T09:52:04;7.13;;;6.53;;
27921;SDS011;15261;50.356;10.340;2023-05-08T09:54:32;6.82;;;6.18;;
27921;SDS011;15261;50.356;10.340;2023-05-08T09:56:58;6.05;;;5.57;;
27921;SDS011;15261;50.356;10.340;2023-05-08T09:59:25;6.80;;;6.10;;
27921;SDS011;15261;50.356;10.340;2023-05-08T10:01:52;8.85;;;6.28;;
27921;SDS011;15261;50.356;10.340;2023-05-08T10:04:34;6.63;;;6.13;;
27921;SDS011;15261;50.356;10.340;2023-05-08T10:07:01;6.30;;;5.70;;
27921;SDS011;15261;50.356;10.340;2023-05-08T10:09:27;6.65;;;6.05;;
27921;SDS011;15261;50.356;10.340;2023-05-08T10:11:53;7.07;;;6.38;;
27921;SDS011;15261;50.356;10.340;2023-05-08T10:14:20;6.78;;;6.07;;
27921;SDS011;15261;50.356;10.340;2023-05-08T10:16:47;8.20;;;5.95;;
27921;SDS011;15261;50.356;10.340;2023-05-08T10:19:16;9.20;;;6.50;;
27921;SDS011;15261;50.356;10.340;2023-05-08T10:21:47;8.55;;;6.50;;
27921;SDS011;15261;50.356;10.340;2023-05-08T10:24:16;7.47;;;6.55;;
27921;SDS011;15261;50.356;10.340;2023-05-08T10:26:47;7.40;;;6.32;;
27921;SDS011;15261;50.356;10.340;2023-05-08T10:32:18;6.53;;;6.03;;
27921;SDS011;15261;50.356;10.340;2023-05-08T10:34:45;7.18;;;6.47;;
27921;SDS011;15261;50.356;10.340;2023-05-08T10:37:13;7.55;;;6.85;;
27921;SDS011;15261;50.356;10.340;2023-05-08T10:39:40;6.78;;;6.25;;
27921;SDS011;15261;50.356;10.340;2023-05-08T10:42:08;7.95;;;7.15;;
27921;SDS011;15261;50.356;10.340;2023-05-08T10:44:34;7.10;;;6.50;;
27921;SDS011;15261;50.356;10.340;2023-05-08T10:47:04;7.40;;;6.75;;
27921;SDS011;15261;50.356;10.340;2023-05-08T10:49:48;7.45;;;6.75;;
27921;SDS011;15261;50.356;10.340;2023-05-08T10:52:40;7.18;;;6.57;;
27921;SDS011;15261;50.356;10.340;2023-05-08T10:55:34;8.80;;;6.60;;
27921;SDS011;15261;50.356;10.340;2023-05-08T10:58:11;7.70;;;6.25;;
27921;SDS011;15261;50.356;10.340;2023-05-08T11:01:09;11.32;;;5.75;;
27921;SDS011;15261;50.356;10.340;2023-05-08T11:06:06;7.00;;;6.38;;
27921;SDS011;15261;50.356;10.340;2023-05-08T11:08:32;5.80;;;5.32;;
27921;SDS011;15261;50.356;10.340;2023-05-08T11:11:13;6.55;;;6.03;;
27921;SDS011;15261;50.356;10.340;2023-05-08T11:19:21;9.63;;;6.03;;
27921;SDS011;15261;50.356;10.340;2023-05-08T11:24:46;7.55;;;6.10;;
27921;SDS011;15261;50.356;10.340;2023-05-08T11:27:13;6.43;;;5.72;;
27921;SDS011;15261;50.356;10.340;2023-05-08T11:29:39;7.68;;;5.68;;
27921;SDS011;15261;50.356;10.340;2023-05-08T11:32:05;7.20;;;5.60;;
27921;SDS011;15261;50.356;10.340;2023-05-08T11:37:18;6.72;;;6.13;;
27921;SDS011;15261;50.356;10.340;2023-05-08T11:39:45;7.40;;;6.28;;
27921;SDS011;15261;50.356;10.340;2023-05-08T11:45:05;6.85;;;6.25;;
27921;SDS011;15261;50.356;10.340;2023-05-08T11:47:40;6.95;;;6.35;;
27921;SDS011;15261;50.356;10.340;2023-05-08T11:50:08;6.82;;;6.22;;
27921;SDS011;15261;50.356;10.340;2023-05-08T11:52:35;7.25;;;6.53;;
27921;SDS011;15261;50.356;10.340;2023-05-08T11:55:02;7.72;;;6.90;;
27921;SDS011;15261;50.356;10.340;2023-05-08T11:57:32;7.65;;;6.43;;
27921;SDS011;15261;50.356;10.340;2023-05-08T12:02:41;6.65;;;6.05;;
27921;SDS011;15261;50.356;10.340;2023-05-08T12:05:10;11.63;;;6.72;;
27921;SDS011;15261;50.356;10.340;2023-05-08T12:07:42;16.38;;;7.45;;
27921;SDS011;15261;50.356;10.340;2023-05-08T12:10:12;14.25;;;6.70;;
27921;SDS011;15261;50.356;10.340;2023-05-08T12:12:38;8.98;;;6.72;;
27921;SDS011;15261;50.356;10.340;2023-05-08T12:15:09;7.03;;;6.43;;
27921;SDS011;15261;50.356;10.340;2023-05-08T12:17:38;10.10;;;7.18;;
27921;SDS011;15261;50.356;10.340;2023-05-08T12:20:08;7.53;;;6.88;;
27921;SDS011;15261;50.356;10.340;2023-05-08T12:22:50;8.68;;;7.10;;
27921;SDS011;15261;50.356;10.340;2023-05-08T12:25:16;8.27;;;7.57;;
27921;SDS011;15261;50.356;10.340;2023-05-08T12:27:43;9.02;;;6.55;;
27921;SDS011;15261;50.356;10.340;2023-05-08T12:30:10;14.27;;;6.68;;
27921;SDS011;15261;50.356;10.340;2023-05-08T12:32:38;13.93;;;6.90;;
27921;SDS011;15261;50.356;10.340;2023-05-08T12:35:08;7.65;;;6.45;;
27921;SDS011;15261;50.356;10.340;2023-05-08T12:37:35;11.25;;;6.70;;
27921;SDS011;15261;50.356;10.340;2023-05-08T12:40:02;18.10;;;6.72;;
27921;SDS011;15261;50.356;10.340;2023-05-08T12:42:47;24.00;;;6.78;;
27921;SDS011;15261;50.356;10.340;2023-05-08T12:45:20;7.57;;;5.57;;
27921;SDS011;15261;50.356;10.340;2023-05-08T12:47:49;6.70;;;6.20;;
27921;SDS011;15261;50.356;10.340;2023-05-08T12:50:16;11.55;;;5.80;;
27921;SDS011;15261;50.356;10.340;2023-05-08T12:52:47;9.45;;;5.97;;
27921;SDS011;15261;50.356;10.340;2023-05-08T12:57:59;8.02;;;6.25;;
27921;SDS011;15261;50.356;10.340;2023-05-08T13:03:05;6.28;;;5.72;;
27921;SDS011;15261;50.356;10.340;2023-05-08T13:05:36;6.85;;;6.00;;
27921;SDS011;15261;50.356;10.340;2023-05-08T13:08:06;8.77;;;5.72;;
27921;SDS011;15261;50.356;10.340;2023-05-08T13:13:24;7.75;;;5.75;;
27921;SDS011;15261;50.356;10.340;2023-05-08T13:15:51;10.20;;;5.85;;
27921;SDS011;15261;50.356;10.340;2023-05-08T13:18:19;10.25;;;5.60;;
27921;SDS011;15261;50.356;10.340;2023-05-08T13:20:47;10.88;;;6.10;;
27921;SDS011;15261;50.356;10.340;2023-05-08T13:23:13;6.55;;;5.93;;
27921;SDS011;15261;50.356;10.340;2023-05-08T13:25:39;8.02;;;5.10;;
27921;SDS011;15261;50.356;10.340;2023-05-08T13:28:05;6.22;;;5.63;;
27921;SDS011;15261;50.356;10.340;2023-05-08T13:30:33;5.75;;;5.20;;
27921;SDS011;15261;50.356;10.340;2023-05-08T13:35:52;5.70;;;5.15;;
27921;SDS011;15261;50.356;10.340;2023-05-08T13:38:18;7.72;;;5.72;;
27921;SDS011;15261;50.356;10.340;2023-05-08T13:40:43;27.40;;;6.38;;
27921;SDS011;15261;50.356;10.340;2023-05-08T13:43:10;16.70;;;5.60;;
27921;SDS011;15261;50.356;10.340;2023-05-08T13:45:35;11.40;;;5.50;;
27921;SDS011;15261;50.356;10.340;2023-05-08T13:48:01;6.28;;;5.60;;
27921;SDS011;15261;50.356;10.340;2023-05-08T13:50:31;5.95;;;5.45;;
27921;SDS011;15261;50.356;10.340;2023-05-08T13:52:56;6.40;;;5.78;;
27921;SDS011;15261;50.356;10.340;2023-05-08T13:55:22;11.95;;;6.00;;
27921;SDS011;15261;50.356;10.340;2023-05-08T13:57:48;5.57;;;4.93;;
27921;SDS011;15261;50.356;10.340;2023-05-08T14:00:13;6.25;;;5.47;;
27921;SDS011;15261;50.356;10.340;2023-05-08T14:02:39;5.50;;;5.10;;
27921;SDS011;15261;50.356;10.340;2023-05-08T14:05:05;8.13;;;5.05;;
27921;SDS011;15261;50.356;10.340;2023-05-08T14:07:32;6.35;;;5.72;;
27921;SDS011;15261;50.356;10.340;2023-05-08T14:09:59;8.80;;;5.68;;
27921;SDS011;15261;50.356;10.340;2023-05-08T14:12:24;15.27;;;5.68;;
27921;SDS011;15261;50.356;10.340;2023-05-08T14:14:50;12.52;;;5.63;;
27921;SDS011;15261;50.356;10.340;2023-05-08T14:17:15;9.10;;;5.72;;
27921;SDS011;15261;50.356;10.340;2023-05-08T14:19:41;6.40;;;5.80;;
27921;SDS011;15261;50.356;10.340;2023-05-08T14:22:06;6.72;;;5.93;;
27921;SDS011;15261;50.356;10.340;2023-05-08T14:24:32;7.68;;;5.50;;
27921;SDS011;15261;50.356;10.340;2023-05-08T14:26:58;11.15;;;5.72;;
27921;SDS011;15261;50.356;10.340;2023-05-08T14:29:23;7.15;;;5.20;;
27921;SDS011;15261;50.356;10.340;2023-05-08T14:31:49;10.23;;;5.47;;
27921;SDS011;15261;50.356;10.340;2023-05-08T14:34:15;10.88;;;5.88;;
27921;SDS011;15261;50.356;10.340;2023-05-08T14:36:40;6.20;;;5.30;;
27921;SDS011;15261;50.356;10.340;2023-05-08T14:39:06;7.38;;;6.18;;
27921;SDS011;15261;50.356;10.340;2023-05-08T14:41:31;6.03;;;5.53;;
27921;SDS011;15261;50.356;10.340;2023-05-08T14:43:57;6.25;;;5.40;;
27921;SDS011;15261;50.356;10.340;2023-05-08T14:46:23;5.55;;;5.05;;
27921;SDS011;15261;50.356;10.340;2023-05-08T14:48:49;6.28;;;5.65;;
27921;SDS011;15261;50.356;10.340;2023-05-08T14:51:15;6.55;;;5.45;;
27921;SDS011;15261;50.356;10.340;2023-05-08T14:53:43;8.18;;;5.82;;
27921;SDS011;15261;50.356;10.340;2023-05-08T14:56:09;6.35;;;5.72;;
27921;SDS011;15261;50.356;10.340;2023-05-08T14:58:34;6.68;;;6.13;;
27921;SDS011;15261;50.356;10.340;2023-05-08T15:01:00;6.20;;;5.78;;
27921;SDS011;15261;50.356;10.340;2023-05-08T15:03:25;5.95;;;5.45;;
27921;SDS011;15261;50.356;10.340;2023-05-08T15:05:51;6.70;;;5.90;;
27921;SDS011;15261;50.356;10.340;2023-05-08T15:08:17;5.68;;;5.18;;
27921;SDS011;15261;50.356;10.340;2023-05-08T15:10:42;6.60;;;5.78;;
27921;SDS011;15261;50.356;10.340;2023-05-08T15:13:08;6.13;;;5.63;;
27921;SDS011;15261;50.356;10.340;2023-05-08T15:15:34;5.93;;;5.43;;
27921;SDS011;15261;50.356;10.340;2023-05-08T15:17:59;10.00;;;6.05;;
27921;SDS011;15261;50.356;10.340;2023-05-08T15:20:25;6.60;;;5.80;;
27921;SDS011;15261;50.356;10.340;2023-05-08T15:22:51;5.47;;;5.03;;
27921;SDS011;15261;50.356;10.340;2023-05-08T15:25:18;5.95;;;5.45;;
27921;SDS011;15261;50.356;10.340;2023-05-08T15:27:43;6.35;;;5.82;;
27921;SDS011;15261;50.356;10.340;2023-05-08T15:30:10;11.88;;;5.40;;
27921;SDS011;15261;50.356;10.340;2023-05-08T15:32:36;6.20;;;5.53;;
27921;SDS011;15261;50.356;10.340;2023-05-08T15:35:02;5.80;;;5.32;;
27921;SDS011;15261;50.356;10.340;2023-05-08T15:37:28;5.47;;;4.93;;
27921;SDS011;15261;50.356;10.340;2023-05-08T15:39:54;7.88;;;5.30;;
27921;SDS011;15261;50.356;10.340;2023-05-08T15:42:20;6.45;;;5.47;;
27921;SDS011;15261;50.356;10.340;2023-05-08T15:44:46;14.82;;;5.72;;
27921;SDS011;15261;50.356;10.340;2023-05-08T15:47:19;6.80;;;5.50;;
27921;SDS011;15261;50.356;10.340;2023-05-08T15:49:46;21.33;;;6.13;;
27921;SDS011;15261;50.356;10.340;2023-05-08T15:52:12;9.70;;;5.53;;
27921;SDS011;15261;50.356;10.340;2023-05-08T15:54:42;13.27;;;5.68;;
27921;SDS011;15261;50.356;10.340;2023-05-08T15:57:08;8.45;;;5.50;;
27921;SDS011;15261;50.356;10.340;2023-05-08T15:59:37;9.10;;;5.30;;
27921;SDS011;15261;50.356;10.340;2023-05-08T16:02:03;5.97;;;5.47;;
27921;SDS011;15261;50.356;10.340;2023-05-08T16:04:29;6.75;;;4.85;;
27921;SDS011;15261;50.356;10.340;2023-05-08T16:06:57;6.13;;;4.97;;
27921;SDS011;15261;50.356;10.340;2023-05-08T16:09:23;24.10;;;6.10;;
27921;SDS011;15261;50.356;10.340;2023-05-08T16:11:52;9.90;;;5.10;;
27921;SDS011;15261;50.356;10.340;2023-05-08T16:14:18;6.68;;;5.00;;
27921;SDS011;15261;50.356;10.340;2023-05-08T16:16:44;5.78;;;5.32;;
27921;SDS011;15261;50.356;10.340;2023-05-08T16:19:10;5.85;;;5.35;;
27921;SDS011;15261;50.356;10.340;2023-05-08T16:21:35;5.75;;;5.35;;
27921;SDS011;15261;50.356;10.340;2023-05-08T16:24:01;6.00;;;5.50;;
27921;SDS011;15261;50.356;10.340;2023-05-08T16:26:27;6.55;;;5.47;;
27921;SDS011;15261;50.356;10.340;2023-05-08T16:28:52;5.50;;;5.00;;
27921;SDS011;15261;50.356;10.340;2023-05-08T16:31:18;8.13;;;4.97;;
27921;SDS011;15261;50.356;10.340;2023-05-08T16:33:43;5.30;;;4.80;;
27921;SDS011;15261;50.356;10.340;2023-05-08T16:36:09;5.43;;;4.90;;
27921;SDS011;15261;50.356;10.340;2023-05-08T16:38:35;5.93;;;5.03;;
27921;SDS011;15261;50.356;10.340;2023-05-08T16:41:01;5.50;;;5.00;;
27921;SDS011;15261;50.356;10.340;2023-05-08T16:43:27;5.28;;;4.88;;
27921;SDS011;15261;50.356;10.340;2023-05-08T16:45:53;7.93;;;5.30;;
27921;SDS011;15261;50.356;10.340;2023-05-08T16:48:19;8.90;;;5.45;;
27921;SDS011;15261;50.356;10.340;2023-05-08T16:50:44;6.07;;;5.47;;
27921;SDS011;15261;50.356;10.340;2023-05-08T16:53:10;6.25;;;5.55;;
27921;SDS011;15261;50.356;10.340;2023-05-08T16:55:36;6.00;;;5.40;;
27921;SDS011;15261;50.356;10.340;2023-05-08T16:58:01;8.35;;;5.85;;
27921;SDS011;15261;50.356;10.340;2023-05-08T17:00:28;6.20;;;5.60;;
27921;SDS011;15261;50.356;10.340;2023-05-08T17:02:55;6.90;;;5.55;;
27921;SDS011;15261;50.356;10.340;2023-05-08T17:05:20;13.18;;;5.90;;